Terminal Aerodrome Forecast
Issued by NWS Boston, MA

Current Version | Previous Version | Text Only | Print | Product List | Glossary On
Versions: 1 2 3 4 5 6 7 8 9 10 11 12 13 14 15 16 17 18 19 20 21 22 23 24 25 26 27 28
000 FTUS41 KBOX 280836 AAA TAFORH TAF AMD KORH 280836Z 2809/2906 23009KT 5SM BR BKN005 FM281400 23009KT P6SM SCT020 FM281600 23010G19KT P6SM BKN045 FM281800 22012G23KT P6SM -SHRA BKN045 FM282200 24010G20KT P6SM BKN045 FM290000 27007KT P6SM SCT045 FM290200 31006KT P6SM FEW045=

USA.gov is the U.S. government's official web portal to all federal, state and local government web resources and services.